Flight Track Log - Related Links

Times and Time Zones

All times are in EDT time to prevent confusion due to time zone crossing. See the UAL582 flight status page for this flight to view local times or setup timezone preferences in your user account.

Time Position Orientation Groundspeed Altitude Reporting Facility
EDT Latitude Longitude Course Direction KTS MPH feet Rate Location/Type
Thu 05:15:47 PM 43.6667 -79.6500 277° West 160 184 1,600  Level Toronto Center
Thu 05:16:47 PM 43.6333 -79.7333 241° Southwest 210 242 3,300 2,150 Climbing Toronto Center
Thu 05:17:47 PM 43.6167 -79.8000 251° West 260 299 5,900 3,200 Climbing Toronto Center
Thu 05:18:00 PM 43.7006 -79.9732 277° West  Level FlightAware Approximate
Thu 05:18:47 PM 43.6333 -79.9167 281° West 270 311 9,700  Level Toronto Center
Thu 05:19:00 PM 43.7106 -80.0932 277° West  Level FlightAware Approximate
Thu 05:19:47 PM 43.6500 -80.0000 285° West 290 334 11,500  Level Toronto Center
Thu 05:20:00 PM 43.7167 -80.2135 270° West  Level FlightAware Approximate
Thu 05:20:47 PM 43.6667 -80.1333 280° West 330 380 14,200  Level Toronto Center
Thu 05:21:00 PM 43.7273 -80.3334 277° West  Level FlightAware Approximate
Thu 05:21:47 PM 43.6833 -80.2500 281° West 340 391 17,100  Level Toronto Center
Thu 05:22:47 PM 43.7167 -80.4000 287° West 350 403 19,300 2,250 Climbing Toronto Center
Thu 05:23:47 PM 43.7000 -80.5333 260° West 360 414 21,600 1,900 Climbing Toronto Center
Thu 05:24:47 PM 43.6833 -80.6667 260° West 380 437 23,100 1,600 Climbing Toronto Center
Thu 05:25:47 PM 43.6333 -80.8333 248° West 390 449 24,800 1,750 Climbing Toronto Center
Thu 05:26:47 PM 43.6000 -80.9667 251° West 390 449 26,600 1,700 Climbing Toronto Center
Thu 05:27:47 PM 43.5667 -81.1000 251° West 400 460 28,200 1,400 Climbing Toronto Center
Thu 05:28:47 PM 43.5500 -81.2667 262° West 410 472 29,400 1,350 Climbing Toronto Center
Thu 05:29:47 PM 43.5167 -81.4333 255° West 420 483 30,900 1,250 Climbing Toronto Center
Thu 05:30:47 PM 43.4833 -81.5667 251° West 420 483 31,900 550 Climbing Toronto Center
Thu 05:31:47 PM 43.4500 -81.7167 253° West 420 483 32,000 50 Climbing Toronto Center
Thu 05:32:47 PM 43.4333 -81.8833 262° West 420 483 32,000  Level Toronto Center
Thu 05:33:47 PM 43.3833 -82.0167 243° Southwest 420 483 32,000  Level Toronto Center
Thu 05:34:47 PM 43.3500 -82.2000 256° West 420 483 32,000  Level Toronto Center
Thu 05:35:47 PM 43.3167 -82.3333 251° West 410 472 32,000 400 Level Toronto Center
Thu 05:36:47 PM 43.3000 -82.5000 262° West 410 472 32,800 1,150 Climbing Toronto Center
Thu 05:37:47 PM 43.2667 -82.6333 251° West 400 460 34,300 1,282 Climbing Toronto Center
Thu 05:38:58 PM 43.2286 -82.8083 253° West 399 459 35,600 779 Climbing Cleveland Center
Thu 05:39:58 PM 43.1903 -82.9522 250° West 399 459 36,000 200 Climbing Cleveland Center
Thu 05:40:58 PM 43.1497 -83.0958 249° West 404 465 36,000  Level Cleveland Center
Thu 05:41:58 PM 43.1111 -83.2367 249° West 404 465 36,000  Level Cleveland Center
Thu 05:42:58 PM 43.0725 -83.3742 249° West 404 465 36,000 -100 Level Cleveland Center
Thu 05:43:58 PM 43.0336 -83.5089 248° West 397 457 35,800 -800 Descending Cleveland Center
Thu 05:44:58 PM 42.9947 -83.6517 250° West 397 457 34,400 -1,350 Descending Cleveland Center
Thu 05:45:58 PM 42.9594 -83.7919 251° West 397 457 33,100 -1,150 Descending Cleveland Center
Thu 05:46:58 PM 42.9469 -83.9417 264° West 397 457 32,100 -550 Descending Cleveland Center
Thu 05:47:58 PM 42.9319 -84.0911 262° West 402 463 32,000 -50 Descending Cleveland Center
Thu 05:48:58 PM 42.9169 -84.2433 262° West 408 470 32,000  Level Cleveland Center
Thu 05:49:58 PM 42.9058 -84.3931 264° West 407 468 32,000  Level Cleveland Center
Thu 05:51:02 PM 42.8886 -84.5425 261° West 401 461 32,000  Level Chicago Center
Thu 05:52:04 PM 42.8725 -84.6908 262° West 397 457 32,000  Level Chicago Center
Thu 05:53:06 PM 42.8572 -84.8400 262° West 398 458 32,000  Level Chicago Center
Thu 05:54:08 PM 42.8428 -84.9889 263° West 397 457 32,000  Level Chicago Center
Thu 05:55:11 PM 42.8233 -85.1628 261° West 389 448 32,000  Level Chicago Center
Thu 05:56:13 PM 42.8075 -85.3092 262° West 390 449 32,000 -194 Level Chicago Center
Thu 05:57:15 PM 42.7917 -85.4544 262° West 387 445 31,600 -1,113 Descending Chicago Center
Thu 05:58:17 PM 42.7675 -85.6033 258° West 398 458 29,700 -1,887 Descending Chicago Center
Thu 05:59:19 PM 42.7400 -85.7544 256° West 409 471 27,700 -1,935 Descending Chicago Center
Thu 06:00:21 PM 42.7142 -85.8997 256° West 397 457 25,700 -1,984 Descending Chicago Center
Thu 06:01:23 PM 42.6878 -86.0439 256° West 390 449 23,600 -2,177 Descending Chicago Center
Thu 06:02:25 PM 42.6556 -86.2206 256° West 398 458 21,200 -1,742 Descending Chicago Center
Thu 06:03:27 PM 42.6281 -86.3583 255° West 383 441 20,000 -1,161 Descending Chicago Center
Thu 06:04:29 PM 42.6028 -86.4972 256° West 378 435 18,800 -1,668 Descending Chicago Center
Thu 06:06:34 PM 42.5508 -86.7686 256° West 367 422 14,800 -1,925 Descending Chicago Center
Thu 06:07:36 PM 42.5156 -86.8939 249° West 358 412 12,800 -1,984 Descending Chicago Center
Thu 06:08:38 PM 42.4769 -87.0411 250° West 349 402 10,700 -1,452 Descending Chicago Center
Thu 06:09:40 PM 42.4469 -87.1461 249° West 301 346 9,800 -823 Descending Chicago Center
Thu 06:10:42 PM 42.4186 -87.2425 248° West 280 322 9,000 -387 Descending Chicago Center
Thu 06:11:44 PM 42.3933 -87.3389 250° West 274 315 9,000  Level Chicago Center
Thu 06:12:46 PM 42.3661 -87.4461 251° West 268 308 9,000  Level Chicago Center
Thu 06:13:48 PM 42.3406 -87.5161 244° Southwest 222 255 9,000 -435 Level Chicago Center
Thu 06:14:50 PM 42.3019 -87.5589 219° Southwest 183 211 8,100 -968 Descending Chicago Center
Thu 06:15:52 PM 42.2633 -87.6011 219° Southwest 179 206 7,000 -1,016 Descending Chicago Center
Thu 06:16:54 PM 42.2261 -87.6431 220° Southwest 177 204 6,000 -912 Descending Chicago Center
Thu 06:17:57 PM 42.1811 -87.6933 220° Southwest 175 201 5,100 -720 Descending Chicago Center
Thu 06:18:59 PM 42.1450 -87.7331 219° Southwest 170 196 4,500 -780 Descending Chicago Center
Thu 06:20:00 PM 42.1000 -87.7833 220° Southwest 171 197 3,500 -942 Descending Chicago TRACON
Thu 06:21:00 PM 42.0667 -87.8167 217° Southwest 168 193 2,600 -900 Descending Chicago TRACON

Login

Don't have an account? Register now (free) for customized features, flight alerts, and more!